Flight Track Log - Related Links

Times and Time Zones

All times are in EDT time to prevent confusion due to time zone crossing. See the RPA3392 flight status page for this flight to view local times or setup timezone preferences in your user account.

Time Position Orientation Groundspeed Altitude Reporting Facility
EDT Latitude Longitude Course Direction KTS MPH feet Rate Location/Type
Fri 06:03:04 PM 44.8333 -93.2000 132° Southeast 172 198 3,100  Level Minneapolis TRACON
Fri 06:04:00 PM 44.7577 -92.7688 111° Southeast  Level Estimated
Fri 06:04:08 PM 44.8178 -93.1292 107° East 217 250 4,600  Level Minneapolis Center
Fri 06:05:00 PM 44.7172 -92.6229 113° Southeast  Level Estimated
Fri 06:05:11 PM 44.7850 -93.0136 112° Southeast 273 314 7,300  Level Minneapolis Center
Fri 06:06:00 PM 44.6764 -92.4772 125° Southeast  Level Estimated
Fri 06:06:11 PM 44.7550 -92.9083 112° Southeast 288 331 10,100  Level Minneapolis Center
Fri 06:07:00 PM 44.6356 -92.3318 117° Southeast  Level Estimated
Fri 06:07:15 PM 44.7250 -92.7967 111° Southeast 304 350 12,800  Level Minneapolis Center
Fri 06:08:00 PM 44.5596 -92.2147 132° Southeast  Level FlightAware Approximate
Fri 06:08:16 PM 44.6903 -92.6756 112° Southeast 334 384 14,900  Level Minneapolis Center
Fri 06:09:16 PM 44.6542 -92.5519 112° Southeast 340 391 18,300 3,000 Climbing Minneapolis Center
Fri 06:10:20 PM 44.6269 -92.4278 107° East 335 386 21,100 2,371 Climbing Minneapolis Center
Fri 06:11:20 PM 44.6033 -92.3011 105° East 336 387 23,200 1,839 Climbing Minneapolis Center
Fri 06:12:24 PM 44.5658 -92.1500 109° East 342 394 24,900 1,248 Climbing Minneapolis Center
Fri 06:13:25 PM 44.5183 -92.0222 118° Southeast 367 422 25,800 1,008 Climbing Minneapolis Center
Fri 06:14:29 PM 44.4633 -91.8872 120° Southeast 394 453 27,000 1,016 Climbing Minneapolis Center
Fri 06:15:29 PM 44.4061 -91.7508 120° Southeast 406 467 27,900 1,065 Climbing Minneapolis Center
Fri 06:16:33 PM 44.3467 -91.6086 120° Southeast 420 483 29,200 1,210 Climbing Minneapolis Center
Fri 06:17:33 PM 44.2881 -91.4669 120° Southeast 424 488 30,400 1,258 Climbing Minneapolis Center
Fri 06:18:37 PM 44.2150 -91.2950 121° Southeast 429 494 31,800 1,258 Climbing Minneapolis Center
Fri 06:19:37 PM 44.1597 -91.1622 120° Southeast 427 491 33,000 581 Climbing Minneapolis Center
Fri 06:20:41 PM 44.1000 -91.0242 121° Southeast 421 484 33,000  Level Minneapolis Center
Fri 06:21:41 PM 44.0383 -90.8786 120° Southeast 434 499 33,000  Level Minneapolis Center
Fri 06:22:45 PM 43.9675 -90.7142 121° Southeast 419 482 33,000 192 Level Minneapolis Center
Fri 06:23:46 PM 43.9086 -90.5756 120° Southeast 420 483 33,400 600 Climbing Minneapolis Center
Fri 06:24:05 PM 43.8825 -90.5211 124° Southeast 423 487 33,800 871 Climbing Chicago Center
Fri 06:24:48 PM 43.8486 -90.4375 119° Southeast 420 483 34,300 692 Climbing Minneapolis Center
Fri 06:25:49 PM 43.7900 -90.3019 121° Southeast 413 475 35,000 339 Climbing Minneapolis Center
Fri 06:26:52 PM 43.7314 -90.1353 116° Southeast 416 479 35,000  Level Minneapolis Center
Fri 06:27:53 PM 43.7047 -89.9711 103° East 436 502 35,000  Level Minneapolis Center
Fri 06:28:56 PM 43.6764 -89.8081 103° East 436 502 35,000  Level Minneapolis Center
Fri 06:29:15 PM 43.6644 -89.7556 107° East 435 501 35,000  Level Chicago Center
Fri 06:30:16 PM 43.6347 -89.5944 104° East 431 496 35,000  Level Chicago Center
Fri 06:31:18 PM 43.6058 -89.4344 104° East 430 495 35,000  Level Chicago Center
Fri 06:32:20 PM 43.5686 -89.2472 105° East 432 497 35,000  Level Chicago Center
Fri 06:33:22 PM 43.5383 -89.0864 105° East 433 498 35,000  Level Chicago Center
Fri 06:34:24 PM 43.5075 -88.9253 105° East 436 502 35,000  Level Chicago Center
Fri 06:35:26 PM 43.4756 -88.7600 105° East 444 511 35,000  Level Chicago Center
Fri 06:36:28 PM 43.4450 -88.6058 105° East 442 509 35,000  Level Chicago Center
Fri 06:37:30 PM 43.4075 -88.4258 106° East 450 518 35,000  Level Chicago Center
Fri 06:38:32 PM 43.3753 -88.2536 104° East 441 507 35,000  Level Chicago Center
Fri 06:39:34 PM 43.3433 -88.0933 105° East 437 503 35,000  Level Chicago Center
Fri 06:40:36 PM 43.3108 -87.9331 106° East 437 503 35,000  Level Chicago Center
Fri 06:41:38 PM 43.2731 -87.7481 106° East 433 498 35,000  Level Chicago Center
Fri 06:42:39 PM 43.2406 -87.5903 106° East 430 495 35,000  Level Chicago Center
Fri 06:43:41 PM 43.2083 -87.4314 105° East 432 497 35,000  Level Chicago Center
Fri 06:44:43 PM 43.1758 -87.2808 106° East 433 498 35,000  Level Chicago Center
Fri 06:45:45 PM 43.1439 -87.1253 106° East 427 491 35,000  Level Chicago Center
Fri 06:46:47 PM 43.1106 -86.9694 106° East 428 493 35,000  Level Chicago Center
Fri 06:47:49 PM 43.0700 -86.7808 106° East 432 497 35,000  Level Chicago Center
Fri 06:48:51 PM 43.0369 -86.6231 106° East 434 499 35,000  Level Chicago Center
Fri 06:49:53 PM 43.0025 -86.4667 107° East 433 498 35,000  Level Chicago Center
Fri 06:50:55 PM 42.9681 -86.3114 107° East 432 497 35,000  Level Chicago Center
Fri 06:51:56 PM 42.9317 -86.1561 108° East 436 502 35,000  Level Chicago Center
Fri 06:52:58 PM 42.8900 -85.9675 107° East 443 510 35,000  Level Chicago Center
Fri 06:54:00 PM 42.8575 -85.8106 106° East 440 506 35,000  Level Chicago Center
Fri 06:55:02 PM 42.8217 -85.6536 107° East 438 504 35,000  Level Chicago Center
Fri 06:56:04 PM 42.7861 -85.4958 107° East 438 504 35,000  Level Chicago Center
Fri 06:57:06 PM 42.7356 -85.3497 115° Southeast 431 496 35,000  Level Chicago Center
Fri 06:58:07 PM 42.6736 -85.1706 115° Southeast 435 501 35,000  Level Chicago Center
Fri 06:59:09 PM 42.6211 -85.0242 116° Southeast 433 498 35,000  Level Chicago Center
Fri 07:00:11 PM 42.5706 -84.8772 115° Southeast 431 496 35,000  Level Chicago Center
Fri 07:01:13 PM 42.5186 -84.7325 116° Southeast 430 495 35,000  Level Chicago Center
Fri 07:02:15 PM 42.4672 -84.5875 116° Southeast 428 493 35,000  Level Chicago Center
Fri 07:03:17 PM 42.4139 -84.4411 116° Southeast 432 497 35,000  Level Chicago Center
Fri 07:04:04 PM 42.3583 -84.3039 119° Southeast 436 502 35,000  Level Cleveland Center
Fri 07:05:04 PM 42.3067 -84.1603 116° Southeast 436 502 35,000  Level Cleveland Center
Fri 07:06:04 PM 42.2525 -84.0169 117° Southeast 436 502 35,000  Level Cleveland Center
Fri 07:07:04 PM 42.2044 -83.8825 116° Southeast 436 502 35,000  Level Cleveland Center
Fri 07:08:04 PM 42.1500 -83.7425 118° Southeast 436 502 35,000  Level Cleveland Center
Fri 07:09:04 PM 42.0956 -83.5969 117° Southeast 436 502 35,000  Level Cleveland Center
Fri 07:10:04 PM 42.0350 -83.4375 117° Southeast 436 502 35,000  Level Cleveland Center
Fri 07:11:04 PM 41.9692 -83.3089 125° Southeast 431 496 35,000  Level Cleveland Center
Fri 07:12:04 PM 41.9053 -83.1892 126° Southeast 431 496 35,000  Level Cleveland Center
Fri 07:13:04 PM 41.8372 -83.0608 125° Southeast 431 496 35,000  Level Cleveland Center
Fri 07:14:04 PM 41.7692 -82.9331 126° Southeast 431 496 35,000  Level Cleveland Center
Fri 07:15:04 PM 41.7028 -82.8053 125° Southeast 431 496 35,000  Level Cleveland Center
Fri 07:16:04 PM 41.6303 -82.6694 126° Southeast 419 482 35,000  Level Cleveland Center
Fri 07:17:04 PM 41.5617 -82.5422 126° Southeast 419 482 35,000  Level Cleveland Center
Fri 07:18:04 PM 41.4931 -82.4128 125° Southeast 419 482 35,000  Level Cleveland Center
Fri 07:19:04 PM 41.4322 -82.3003 126° Southeast 419 482 35,000  Level Cleveland Center
Fri 07:20:04 PM 41.3611 -82.1767 127° Southeast 414 476 35,000  Level Cleveland Center
Fri 07:21:04 PM 41.2667 -82.0611 137° Southeast 414 476 35,000  Level Cleveland Center
Fri 07:22:04 PM 41.1742 -81.9653 142° Southeast 414 476 35,000  Level Cleveland Center
Fri 07:23:04 PM 41.0833 -81.8861 147° Southeast 432 497 35,000  Level Cleveland Center
Fri 07:24:04 PM 40.9883 -81.7878 142° Southeast 438 504 35,000  Level Cleveland Center
Fri 07:25:04 PM 40.8997 -81.6956 142° Southeast 423 487 35,000  Level Cleveland Center
Fri 07:26:04 PM 40.8089 -81.6036 143° Southeast 416 479 35,000  Level Cleveland Center
Fri 07:27:04 PM 40.7139 -81.5089 143° Southeast 416 479 35,000  Level Cleveland Center
Fri 07:28:04 PM 40.6228 -81.4147 142° Southeast 427 491 35,000  Level Cleveland Center
Fri 07:29:04 PM 40.5214 -81.3097 142° Southeast 422 486 35,000  Level Cleveland Center
Fri 07:30:04 PM 40.4239 -81.2131 143° Southeast 427 491 35,000 -150 Level Cleveland Center
Fri 07:31:04 PM 40.3244 -81.1142 143° Southeast 439 505 34,700 -600 Descending Cleveland Center
Fri 07:32:04 PM 40.2436 -81.0183 138° Southeast 444 511 33,800 -850 Descending Cleveland Center
Fri 07:33:04 PM 40.1564 -80.9092 136° Southeast 438 504 33,000 -850 Descending Cleveland Center
Fri 07:34:04 PM 40.0733 -80.8000 135° Southeast 427 491 32,100 -700 Descending Cleveland Center
Fri 07:35:04 PM 39.9878 -80.6886 135° Southeast 427 491 31,600 -550 Descending Cleveland Center
Fri 07:36:04 PM 39.9003 -80.5803 136° Southeast 427 491 31,000 -300 Descending Cleveland Center
Fri 07:37:04 PM 39.8128 -80.4694 136° Southeast 427 491 31,000  Level Cleveland Center
Fri 07:39:07 PM 39.6361 -80.2481 136° Southeast 436 502 31,000  Level Washington Center
Fri 07:40:08 PM 39.5508 -80.1403 136° Southeast 436 502 31,000  Level Washington Center
Fri 07:41:09 PM 39.4631 -80.0297 136° Southeast 436 502 31,000  Level Washington Center
Fri 07:42:07 PM 39.3794 -79.9253 136° Southeast 431 496 31,000  Level Washington Center
Fri 07:43:07 PM 39.3019 -79.8186 133° Southeast 424 488 31,000  Level Washington Center
Fri 07:44:07 PM 39.2842 -79.6703 99° East 389 448 31,000  Level Washington Center
Fri 07:45:08 PM 39.2722 -79.5247 96° East 395 455 31,000 -403 Level Washington Center
Fri 07:46:06 PM 39.2606 -79.3739 96° East 407 468 30,200 -1,678 Descending Washington Center
Fri 07:47:06 PM 39.2467 -79.2150 96° East 417 480 27,700 -1,785 Descending Washington Center
Fri 07:48:07 PM 39.2344 -79.0644 96° East 429 494 26,600 -1,250 Descending Washington Center
Fri 07:49:06 PM 39.2178 -78.9083 98° East 429 494 25,200 -1,866 Descending Washington Center
Fri 07:50:06 PM 39.2053 -78.7631 96° East 423 487 22,900 -2,182 Descending Washington Center
Fri 07:51:07 PM 39.1900 -78.6206 98° East 411 473 20,800 -2,083 Descending Washington Center
Fri 07:52:07 PM 39.1750 -78.4672 97° East 400 460 18,700 -2,067 Descending Washington Center
Fri 07:53:06 PM 39.1553 -78.3325 101° East 395 455 16,700 -1,500 Descending Washington Center
Fri 07:54:07 PM 39.1228 -78.2003 108° East 377 434 15,700 -992 Descending Washington Center
Fri 07:55:07 PM 39.0900 -78.0761 109° East 377 434 14,700 -1,059 Descending Washington Center
Fri 07:56:06 PM 39.0592 -77.9519 108° East 372 428 13,600 -1,150 Descending Washington Center
Fri 07:57:07 PM 39.0319 -77.8442 108° East 360 414 12,400 -1,289 Descending Washington Center
Fri 07:58:07 PM 38.9989 -77.7178 109° East 342 394 11,000 -1,438 Descending Washington Center
Fri 07:59:08 PM 38.9756 -77.6261 108° East 306 352 9,500 -1,538 Descending Washington Center
Fri 07:59:25 PM 38.9667 -77.5833 105° East 292 336 9,000 -761 Descending Potomac TRACON
Fri 08:00:19 PM 38.9500 -77.5000 104° East 304 350 8,600 -1,158 Descending Potomac TRACON
Fri 08:01:19 PM 38.9667 -77.3833 80° East 298 343 6,800 -1,762 Descending Potomac TRACON
Fri 08:02:25 PM 38.9833 -77.2833 78° East 283 326 4,900 -1,095 Descending Potomac TRACON
Fri 08:03:25 PM 38.9667 -77.2000 104° East 213 245 4,500 -850 Descending Potomac TRACON
Fri 08:04:25 PM 38.9500 -77.1500 113° Southeast 158 182 3,200 -1,300 Descending Potomac TRACON

Login

Don't have an account? Register now (free) for customized features, flight alerts, and more!